createdAt,value
2018-01-08T00:00:32.890Z,3.51
2018-01-08T00:01:32.181Z,3.48
2018-01-08T00:02:32.481Z,3.49
2018-01-08T00:03:32.629Z,3.46
2018-01-08T00:04:31.718Z,3.43
2018-01-08T00:05:31.897Z,3.53
2018-01-08T00:06:32.259Z,3.49
2018-01-08T00:07:32.722Z,3.45
2018-01-08T00:08:32.639Z,3.48
2018-01-08T00:09:33.230Z,3.43
2018-01-08T00:10:32.487Z,3.44
2018-01-08T00:11:31.838Z,3.42
2018-01-08T00:12:32.141Z,3.48
2018-01-08T00:13:32.477Z,3.48
2018-01-08T00:14:32.765Z,3.49
2018-01-08T00:15:33.629Z,3.41
2018-01-08T00:16:32.730Z,3.53
2018-01-08T00:17:33.412Z,3.46
2018-01-08T00:18:33.342Z,3.51
2018-01-08T00:19:32.185Z,3.44
2018-01-08T00:20:32.416Z,3.52
2018-01-08T00:21:32.692Z,3.48
2018-01-08T00:22:33.297Z,3.41
2018-01-08T00:23:32.448Z,3.44
2018-01-08T00:24:32.840Z,3.46
2018-01-08T00:25:32.374Z,3.46
2018-01-08T00:26:32.733Z,3.46
2018-01-08T00:27:33.348Z,3.55
2018-01-08T00:28:32.478Z,3.44
2018-01-08T00:29:32.629Z,3.49
2018-01-08T00:30:31.939Z,3.42
2018-01-08T00:31:31.980Z,3.43
2018-01-08T00:32:31.926Z,3.46
2018-01-08T00:33:32.659Z,3.47
2018-01-08T00:34:31.846Z,3.53
2018-01-08T00:35:32.069Z,3.48
2018-01-08T00:36:31.877Z,3.5
2018-01-08T00:37:32.276Z,3.48
2018-01-08T00:38:32.603Z,3.51
2018-01-08T00:39:32.980Z,3.47
2018-01-08T00:40:32.463Z,3.48
2018-01-08T00:41:32.669Z,3.48
2018-01-08T00:42:33.296Z,3.52
2018-01-08T00:43:32.470Z,3.49
2018-01-08T00:44:32.875Z,3.52
2018-01-08T00:45:32.135Z,3.45
2018-01-08T00:46:32.417Z,3.49
2018-01-08T00:47:32.567Z,3.48
2018-01-08T00:50:33.360Z,3.5
2018-01-08T00:51:32.554Z,3.48
2018-01-08T00:52:32.774Z,3.51
2018-01-08T00:53:31.181Z,3.54
2018-01-08T00:54:31.303Z,3.48
2018-01-08T00:55:31.474Z,3.49
2018-01-08T00:56:31.592Z,3.44
2018-01-08T00:57:31.732Z,3.54
2018-01-08T00:58:31.808Z,3.57
2018-01-08T00:59:32.056Z,3.55
2018-01-08T01:00:31.241Z,3.53
2018-01-08T01:01:31.752Z,3.52
2018-01-08T01:02:32.155Z,3.56
2018-01-08T01:03:31.370Z,3.51
2018-01-08T01:04:31.633Z,3.49
2018-01-08T01:05:31.815Z,3.52
2018-01-08T01:06:32.008Z,3.51
2018-01-08T01:07:31.149Z,3.53
2018-01-08T01:08:31.363Z,3.55
2018-01-08T01:09:31.638Z,3.55
2018-01-08T01:10:31.848Z,3.55
2018-01-08T01:11:31.969Z,3.51
2018-01-08T01:14:32.042Z,3.57
2018-01-08T01:15:31.271Z,3.52
2018-01-08T01:16:31.430Z,3.56
2018-01-08T01:17:31.516Z,3.56
2018-01-08T01:18:31.650Z,3.52
2018-01-08T01:19:31.914Z,3.51
2018-01-08T01:20:32.163Z,3.5
2018-01-08T01:21:31.474Z,3.53
2018-01-08T01:22:31.604Z,3.56
2018-01-08T01:23:32.107Z,3.57
2018-01-08T01:24:31.228Z,3.56
2018-01-08T01:25:31.337Z,3.52
2018-01-08T01:26:31.625Z,3.58
2018-01-08T01:27:31.827Z,3.5
2018-01-08T01:28:31.863Z,3.55
2018-01-08T01:29:32.078Z,3.54
2018-01-08T01:30:31.488Z,3.57
2018-01-08T01:31:31.737Z,3.54
2018-01-08T01:32:31.842Z,3.55
2018-01-08T01:33:32.032Z,3.62
2018-01-08T01:34:31.481Z,3.58
2018-01-08T01:35:31.603Z,3.51
2018-01-08T01:36:31.857Z,3.49
2018-01-08T01:37:32.112Z,3.48
2018-01-08T01:38:31.548Z,3.55
2018-01-08T01:41:31.822Z,3.58
2018-01-08T01:42:32.148Z,3.5
2018-01-08T01:43:31.501Z,3.58
2018-01-08T01:44:32.684Z,3.56
2018-01-08T01:45:31.104Z,3.57
2018-01-08T01:46:31.486Z,3.57
2018-01-08T01:47:31.827Z,3.52
2018-01-08T01:48:31.022Z,3.52
2018-01-08T01:49:31.186Z,3.54
2018-01-08T01:50:31.458Z,3.53
2018-01-08T01:51:32.018Z,3.58
2018-01-08T01:52:31.451Z,3.57
2018-01-08T01:53:31.826Z,3.56
2018-01-08T01:54:32.159Z,3.56
2018-01-08T01:55:31.719Z,3.6
2018-01-08T01:56:31.214Z,3.55
2018-01-08T01:57:31.599Z,3.6
2018-01-08T01:58:31.867Z,3.54
2018-01-08T01:59:31.220Z,3.58
2018-01-08T02:00:31.690Z,3.56
2018-01-08T02:01:31.883Z,3.62
2018-01-08T02:02:31.767Z,3.63
2018-01-08T02:03:31.176Z,3.53
2018-01-08T02:04:31.246Z,3.53
2018-01-08T02:05:31.585Z,3.57
2018-01-08T02:06:31.167Z,3.6
2018-01-08T02:07:31.323Z,3.55
2018-01-08T02:08:31.603Z,3.6
2018-01-08T02:09:31.844Z,3.6
2018-01-08T02:10:31.077Z,3.63
2018-01-08T02:11:31.252Z,3.59
2018-01-08T02:12:31.619Z,3.6
2018-01-08T02:13:31.738Z,3.63
2018-01-08T02:14:31.565Z,3.57
2018-01-08T02:15:31.525Z,3.59
2018-01-08T02:16:32.070Z,3.59
2018-01-08T02:17:31.318Z,3.6
2018-01-08T02:18:31.489Z,3.63
2018-01-08T02:19:31.642Z,3.57
2018-01-08T02:20:31.850Z,3.61
2018-01-08T02:21:31.078Z,3.61
2018-01-08T02:22:31.237Z,3.64
2018-01-08T02:23:31.886Z,3.67
2018-01-08T02:24:31.165Z,3.57
2018-01-08T02:25:31.558Z,3.55
2018-01-08T02:26:30.905Z,3.59
2018-01-08T02:27:31.280Z,3.6
2018-01-08T02:28:31.092Z,3.57
2018-01-08T02:29:30.532Z,3.64
2018-01-08T02:30:30.705Z,3.62
2018-01-08T02:31:31.072Z,3.63
2018-01-08T02:32:30.961Z,3.61
2018-01-08T02:33:31.123Z,3.57
2018-01-08T02:34:30.508Z,3.57
2018-01-08T02:35:30.557Z,3.58
2018-01-08T02:36:30.750Z,3.6
2018-01-08T02:37:31.102Z,3.61
2018-01-08T02:38:31.526Z,3.66
2018-01-08T02:39:30.999Z,3.63
2018-01-08T02:40:31.312Z,3.6
2018-01-08T02:41:30.676Z,3.56
2018-01-08T02:42:30.792Z,3.65
2018-01-08T02:43:31.140Z,3.61
2018-01-08T02:44:56.706Z,3.63
2018-01-08T02:45:30.803Z,3.61
2018-01-08T02:46:31.062Z,3.62
2018-01-08T02:47:31.314Z,3.6
2018-01-08T02:48:31.430Z,3.6
2018-01-08T02:49:30.954Z,3.65
2018-01-08T02:50:31.137Z,3.55
2018-01-08T02:51:31.561Z,3.63
2018-01-08T02:52:30.956Z,3.62
2018-01-08T02:53:31.245Z,3.63
2018-01-08T02:54:31.621Z,3.63
2018-01-08T02:55:31.013Z,3.58
2018-01-08T02:56:31.451Z,3.59
2018-01-08T02:57:31.708Z,3.61
2018-01-08T02:58:32.105Z,3.64
2018-01-08T02:59:31.355Z,3.62
2018-01-08T03:00:31.512Z,3.59
2018-01-08T03:01:32.010Z,3.59
2018-01-08T03:02:32.218Z,3.65
2018-01-08T03:03:31.528Z,3.58
2018-01-08T03:04:31.656Z,3.65
2018-01-08T03:05:31.886Z,3.63
2018-01-08T03:06:32.183Z,3.67
2018-01-08T03:07:31.471Z,3.6
2018-01-08T03:08:31.681Z,3.63
2018-01-08T03:09:31.972Z,3.57
2018-01-08T03:10:31.270Z,3.57
2018-01-08T03:11:31.628Z,3.67
2018-01-08T03:12:32.230Z,3.58
2018-01-08T03:13:31.736Z,3.58
2018-01-08T03:14:32.034Z,3.63
2018-01-08T03:15:31.240Z,3.66
2018-01-08T03:16:31.457Z,3.62
2018-01-08T03:17:31.667Z,3.64
2018-01-08T03:18:32.006Z,3.67
2018-01-08T03:19:31.314Z,3.6
2018-01-08T03:20:31.504Z,3.57
2018-01-08T03:21:31.716Z,3.6
2018-01-08T03:22:31.948Z,3.56
2018-01-08T03:23:31.341Z,3.61
2018-01-08T03:24:31.605Z,3.58
2018-01-08T03:27:31.669Z,3.56
2018-01-08T03:28:30.998Z,3.6
2018-01-08T03:29:31.326Z,3.56
2018-01-08T03:30:30.734Z,3.63
2018-01-08T03:31:31.008Z,3.53
2018-01-08T03:32:31.220Z,3.52
2018-01-08T03:33:30.762Z,3.53
2018-01-08T03:34:31.256Z,3.58
2018-01-08T03:35:30.611Z,3.56
2018-01-08T03:36:31.272Z,3.61
2018-01-08T03:37:30.440Z,3.63
2018-01-08T03:38:30.618Z,3.59
2018-01-08T03:39:31.032Z,3.57
2018-01-08T03:40:31.297Z,3.6
2018-01-08T03:41:31.413Z,3.61
2018-01-08T03:42:30.629Z,3.64
2018-01-08T03:43:30.830Z,3.6
2018-01-08T03:44:31.182Z,3.63
2018-01-08T03:45:31.411Z,3.56
2018-01-08T03:46:30.716Z,3.54
2018-01-08T03:47:30.965Z,3.56
2018-01-08T03:48:31.287Z,3.61
2018-01-08T03:49:31.519Z,3.58
2018-01-08T03:50:30.820Z,3.61
2018-01-08T03:51:31.145Z,3.57
2018-01-08T03:52:31.422Z,3.54
2018-01-08T03:53:31.377Z,3.58
2018-01-08T03:54:31.497Z,3.57
2018-01-08T03:55:30.816Z,3.66
2018-01-08T03:56:31.042Z,3.58
2018-01-08T03:57:31.248Z,3.56
2018-01-08T03:58:31.447Z,3.53
2018-01-08T03:59:30.597Z,3.53
2018-01-08T04:00:30.856Z,3.61
2018-01-08T04:01:30.931Z,3.54
2018-01-08T04:02:31.098Z,3.57
2018-01-08T04:03:31.446Z,3.63
2018-01-08T04:04:30.608Z,3.63
2018-01-08T04:05:30.863Z,3.64
2018-01-08T04:06:31.247Z,3.55
2018-01-08T04:07:31.392Z,3.64
2018-01-08T04:08:30.519Z,3.54
2018-01-08T04:09:30.603Z,3.63
2018-01-08T04:10:30.804Z,3.58
2018-01-08T04:11:31.092Z,3.55
2018-01-08T04:12:31.307Z,3.62
2018-01-08T04:13:30.500Z,3.57
2018-01-08T04:14:30.636Z,3.63
2018-01-08T04:15:30.822Z,3.61
2018-01-08T04:16:31.070Z,3.59
2018-01-08T04:17:31.461Z,3.57
2018-01-08T04:18:30.943Z,3.56
2018-01-08T04:19:31.226Z,3.6
2018-01-08T04:20:30.355Z,3.61
2018-01-08T04:21:31.430Z,3.61
2018-01-08T04:22:30.693Z,3.62
2018-01-08T04:23:31.006Z,3.62
2018-01-08T04:24:31.376Z,3.59
2018-01-08T04:25:30.664Z,3.56
2018-01-08T04:26:30.874Z,3.66
2018-01-08T04:27:31.059Z,3.61
2018-01-08T04:28:30.378Z,3.61
2018-01-08T04:29:30.688Z,3.59
2018-01-08T04:30:30.929Z,3.67
2018-01-08T04:31:31.182Z,3.66
2018-01-08T04:32:31.621Z,3.68
2018-01-08T04:33:30.831Z,3.61
2018-01-08T04:34:30.899Z,3.67
2018-01-08T04:35:30.975Z,3.68
2018-01-08T04:36:31.250Z,3.62
2018-01-08T04:37:31.508Z,3.59
2018-01-08T04:38:30.920Z,3.61
2018-01-08T04:39:31.449Z,3.67
2018-01-08T04:40:30.652Z,3.6
2018-01-08T04:41:30.867Z,3.6
2018-01-08T04:42:31.112Z,3.6
2018-01-08T04:43:31.205Z,3.61
2018-01-08T04:44:31.478Z,3.6
2018-01-08T04:45:30.826Z,3.59
2018-01-08T04:46:31.026Z,3.65
2018-01-08T04:47:31.248Z,3.58
2018-01-08T04:48:31.566Z,3.62
2018-01-08T04:49:31.006Z,3.67
2018-01-08T04:50:31.063Z,3.64
2018-01-08T04:51:31.173Z,3.59
2018-01-08T04:52:31.363Z,3.59
2018-01-08T04:53:31.574Z,3.65
2018-01-08T04:54:30.912Z,3.68
2018-01-08T04:55:31.039Z,3.67
2018-01-08T04:56:31.236Z,3.64
2018-01-08T04:57:31.341Z,3.64
2018-01-08T04:58:31.537Z,3.65
2018-01-08T04:59:30.820Z,3.67
2018-01-08T05:00:31.020Z,3.61
2018-01-08T05:01:31.015Z,3.65
2018-01-08T05:02:31.240Z,3.63
2018-01-08T05:03:31.456Z,3.68
2018-01-08T05:04:31.670Z,3.72
2018-01-08T05:05:30.834Z,3.62
2018-01-08T05:06:31.062Z,3.63
2018-01-08T05:07:31.262Z,3.62
2018-01-08T05:08:31.343Z,3.64
2018-01-08T05:09:31.506Z,3.71
2018-01-08T05:10:30.988Z,3.66
2018-01-08T05:11:31.396Z,3.64
2018-01-08T05:12:31.575Z,3.72
2018-01-08T05:13:31.840Z,3.65
2018-01-08T05:14:30.930Z,3.67
2018-01-08T05:15:31.146Z,3.73
2018-01-08T05:16:31.388Z,3.7
2018-01-08T05:17:31.720Z,3.69
2018-01-08T05:18:30.951Z,3.69
2018-01-08T05:19:31.022Z,3.7
2018-01-08T05:20:31.243Z,3.68
2018-01-08T05:21:31.662Z,3.62
2018-01-08T05:22:30.817Z,3.64
2018-01-08T05:23:31.019Z,3.71
2018-01-08T05:24:31.361Z,3.72
2018-01-08T05:25:31.712Z,3.71
2018-01-08T05:26:31.575Z,3.67
2018-01-08T05:27:30.798Z,3.66
2018-01-08T05:28:30.975Z,3.68
2018-01-08T05:29:31.539Z,3.75
2018-01-08T05:30:31.840Z,3.66
2018-01-08T05:31:31.571Z,3.72
2018-01-08T05:32:31.883Z,3.7
2018-01-08T05:33:31.809Z,3.69
2018-01-08T05:34:31.663Z,3.68
2018-01-08T05:35:31.990Z,3.71
2018-01-08T05:36:31.884Z,3.74
2018-01-08T05:37:32.083Z,3.72
2018-01-08T05:38:31.928Z,3.78
2018-01-08T05:39:32.469Z,3.77
2018-01-08T05:40:31.825Z,3.72
2018-01-08T05:41:32.171Z,3.78
2018-01-08T05:42:31.629Z,3.78
2018-01-08T05:43:31.761Z,3.7
2018-01-08T05:44:31.927Z,3.75
2018-01-08T05:45:31.769Z,3.7
2018-01-08T05:46:31.656Z,3.77
2018-01-08T05:47:31.820Z,3.73
2018-01-08T05:48:31.940Z,3.79
2018-01-08T05:49:32.269Z,3.73
2018-01-08T05:50:32.054Z,3.73
2018-01-08T05:51:32.059Z,3.79
2018-01-08T05:52:32.212Z,3.76
2018-01-08T05:53:31.679Z,3.8
2018-01-08T05:54:32.073Z,3.81
2018-01-08T05:55:31.610Z,3.75
2018-01-08T05:56:31.805Z,3.77
2018-01-08T05:57:32.036Z,3.8
2018-01-08T05:58:31.387Z,3.82
2018-01-08T05:59:31.685Z,3.75
2018-01-08T06:00:30.962Z,3.76
2018-01-08T06:01:31.335Z,3.8
2018-01-08T06:02:30.659Z,3.75
2018-01-08T06:03:30.905Z,3.76
2018-01-08T06:04:31.222Z,3.82
2018-01-08T06:05:31.403Z,3.82
2018-01-08T06:06:30.659Z,3.74
2018-01-08T06:07:30.870Z,3.8
2018-01-08T06:08:31.271Z,3.79
2018-01-08T06:09:30.628Z,3.86
2018-01-08T06:10:30.771Z,3.83
2018-01-08T06:11:31.033Z,3.8
2018-01-08T06:12:31.365Z,3.84
2018-01-08T06:13:30.588Z,3.86
2018-01-08T06:14:30.843Z,3.77
2018-01-08T06:15:31.487Z,3.78
2018-01-08T06:16:30.758Z,3.78
2018-01-08T06:17:31.012Z,3.81
2018-01-08T06:18:31.320Z,3.86
2018-01-08T06:19:30.660Z,3.8
2018-01-08T06:20:30.976Z,3.87
2018-01-08T06:21:31.342Z,3.8
2018-01-08T06:22:31.575Z,3.84
2018-01-08T06:23:30.957Z,3.84
2018-01-08T06:24:31.241Z,3.8
2018-01-08T06:25:31.518Z,3.83
2018-01-08T06:26:31.313Z,3.87
2018-01-08T06:27:30.662Z,3.79
2018-01-08T06:28:31.060Z,3.88
2018-01-08T06:29:31.448Z,3.9
2018-01-08T06:30:30.814Z,3.85
2018-01-08T06:31:31.288Z,3.83
2018-01-08T06:32:31.382Z,3.82
2018-01-08T06:33:31.387Z,3.8
2018-01-08T06:34:31.675Z,3.84
2018-01-08T06:35:31.036Z,3.84
2018-01-08T06:36:31.196Z,3.8
2018-01-08T06:37:31.666Z,3.83
2018-01-08T06:38:31.122Z,3.82
2018-01-08T06:39:31.446Z,3.83
2018-01-08T06:40:31.729Z,3.85
2018-01-08T06:41:31.128Z,3.84
2018-01-08T06:42:31.425Z,3.84
2018-01-08T06:43:30.711Z,3.84
2018-01-08T06:44:30.957Z,3.82
2018-01-08T06:45:31.219Z,3.81
2018-01-08T06:46:31.494Z,3.86
2018-01-08T06:47:31.223Z,3.81
2018-01-08T06:48:31.425Z,3.81
2018-01-08T06:49:31.491Z,3.89
2018-01-08T06:50:31.699Z,3.87
2018-01-08T06:51:30.982Z,3.88
2018-01-08T06:52:31.389Z,3.82
2018-01-08T06:53:31.662Z,3.84
2018-01-08T06:54:31.055Z,3.82
2018-01-08T06:55:31.351Z,3.84
2018-01-08T06:56:31.721Z,3.9
2018-01-08T06:57:31.220Z,3.9
2018-01-08T06:58:31.503Z,3.89
2018-01-08T06:59:30.815Z,3.84
2018-01-08T07:00:31.156Z,3.89
2018-01-08T07:01:31.436Z,3.84
2018-01-08T07:02:31.686Z,3.86
2018-01-08T07:03:31.884Z,3.81
2018-01-08T07:04:31.048Z,3.9
2018-01-08T07:05:31.202Z,3.87
2018-01-08T07:06:31.401Z,3.83
2018-01-08T07:07:31.695Z,3.86
2018-01-08T07:08:31.352Z,3.91
2018-01-08T07:09:31.707Z,3.92
2018-01-08T07:10:32.058Z,3.82
2018-01-08T07:11:31.332Z,3.89
2018-01-08T07:12:31.546Z,3.89
2018-01-08T07:13:31.845Z,3.9
2018-01-08T07:14:31.320Z,3.87
2018-01-08T07:15:31.698Z,3.83
2018-01-08T07:16:31.960Z,3.87
2018-01-08T07:17:31.829Z,3.92
2018-01-08T07:18:31.669Z,3.87
2018-01-08T07:19:31.725Z,3.84
2018-01-08T07:20:32.029Z,3.83
2018-01-08T07:21:32.059Z,3.84
2018-01-08T07:22:31.915Z,3.9
2018-01-08T07:23:31.324Z,3.88
2018-01-08T07:24:31.593Z,3.81
2018-01-08T07:25:31.946Z,3.89
2018-01-08T07:26:31.218Z,3.82
2018-01-08T07:27:31.485Z,3.81
2018-01-08T07:28:31.726Z,3.88
2018-01-08T07:29:31.847Z,3.86
2018-01-08T07:30:32.145Z,3.89
2018-01-08T07:31:31.466Z,3.88
2018-01-08T07:32:31.782Z,3.87
2018-01-08T07:33:31.683Z,3.91
2018-01-08T07:34:31.979Z,3.89
2018-01-08T07:35:31.169Z,3.83
2018-01-08T07:36:31.337Z,3.82
2018-01-08T07:37:31.697Z,3.84
2018-01-08T07:38:31.899Z,3.82
2018-01-08T07:39:31.832Z,3.86
2018-01-08T07:40:32.065Z,3.88
2018-01-08T07:41:31.423Z,3.87
2018-01-08T07:42:31.620Z,3.86
2018-01-08T07:43:31.820Z,3.82
2018-01-08T07:44:31.151Z,3.84
2018-01-08T07:45:31.373Z,3.86
2018-01-08T07:46:31.574Z,3.89
2018-01-08T07:47:31.894Z,3.85
2018-01-08T07:48:31.360Z,3.86
2018-01-08T07:49:31.780Z,3.89
2018-01-08T07:50:31.305Z,3.9
2018-01-08T07:51:31.803Z,3.83
2018-01-08T07:52:31.704Z,3.86
2018-01-08T07:53:31.915Z,3.81
2018-01-08T07:54:31.523Z,3.83
2018-01-08T07:55:31.729Z,3.85
2018-01-08T07:56:31.122Z,3.88
2018-01-08T07:57:31.345Z,3.79
2018-01-08T07:58:31.451Z,3.86
2018-01-08T07:59:31.675Z,3.76
2018-01-08T08:00:32.045Z,3.8
2018-01-08T08:01:31.358Z,3.88
2018-01-08T08:02:30.773Z,3.81
2018-01-08T08:03:31.235Z,3.86
2018-01-08T08:04:30.458Z,3.8
2018-01-08T08:05:30.658Z,3.84
2018-01-08T08:06:30.844Z,3.84
2018-01-08T08:07:31.113Z,3.87
2018-01-08T08:08:31.282Z,3.8
2018-01-08T08:09:30.451Z,3.81
2018-01-08T08:10:30.552Z,3.88
2018-01-08T08:11:30.789Z,3.82
2018-01-08T08:12:31.288Z,3.86
2018-01-08T08:13:30.525Z,3.81
2018-01-08T08:14:30.759Z,3.78
2018-01-08T08:15:31.083Z,3.83
2018-01-08T08:16:31.206Z,3.86
2018-01-08T08:17:30.557Z,3.78
2018-01-08T08:18:30.875Z,3.78
2018-01-08T08:19:31.204Z,3.83
2018-01-08T08:20:30.524Z,3.82
2018-01-08T08:21:30.768Z,3.83
2018-01-08T08:22:31.165Z,3.81
2018-01-08T08:23:30.623Z,3.83
2018-01-08T08:24:30.726Z,3.79
2018-01-08T08:25:31.016Z,3.82
2018-01-08T08:26:31.512Z,3.85
2018-01-08T08:27:31.012Z,3.83
2018-01-08T08:28:30.489Z,3.81
2018-01-08T08:29:30.791Z,3.85
2018-01-08T08:30:30.898Z,3.81
2018-01-08T08:31:31.044Z,3.82
2018-01-08T08:32:31.274Z,3.8
2018-01-08T08:33:31.456Z,3.83
2018-01-08T08:34:31.789Z,3.79
2018-01-08T08:35:32.118Z,3.8
2018-01-08T08:36:31.348Z,3.78
2018-01-08T08:37:31.426Z,3.78
2018-01-08T08:38:31.594Z,3.79
2018-01-08T08:39:32.092Z,3.78
2018-01-08T08:40:31.431Z,3.78
2018-01-08T08:41:31.625Z,3.78
2018-01-08T08:42:31.778Z,3.79
2018-01-08T08:43:31.897Z,3.85
2018-01-08T08:44:31.952Z,3.83
2018-01-08T08:45:31.938Z,3.78
2018-01-08T08:46:32.055Z,3.79
2018-01-08T08:47:31.564Z,3.76
2018-01-08T08:48:31.837Z,3.83
2018-01-08T08:49:31.674Z,3.79
2018-01-08T08:50:31.961Z,3.81
2018-01-08T08:51:32.262Z,3.76
2018-01-08T08:52:31.738Z,3.79
2018-01-08T08:53:32.013Z,3.8
2018-01-08T08:54:31.601Z,3.81
2018-01-08T08:55:31.830Z,3.81
2018-01-08T08:56:31.653Z,3.77
2018-01-08T08:57:32.020Z,3.81
2018-01-08T08:58:31.532Z,3.84
2018-01-08T08:59:31.807Z,3.77
2018-01-08T09:00:32.042Z,3.76
2018-01-08T09:01:31.752Z,3.81
2018-01-08T09:02:32.131Z,3.82
2018-01-08T09:03:31.542Z,3.79
2018-01-08T09:04:31.784Z,3.83
2018-01-08T09:05:31.904Z,3.77
2018-01-08T09:06:31.392Z,3.84
2018-01-08T09:07:31.619Z,3.79
2018-01-08T09:08:31.655Z,3.77
2018-01-08T09:09:31.771Z,3.8
2018-01-08T09:10:31.880Z,3.81
2018-01-08T09:11:31.105Z,3.79
2018-01-08T09:12:31.418Z,3.78
2018-01-08T09:13:31.714Z,3.7
2018-01-08T09:14:32.227Z,3.73
2018-01-08T09:15:31.525Z,3.72
2018-01-08T09:16:31.832Z,3.75
2018-01-08T09:17:32.132Z,3.77
2018-01-08T09:18:31.421Z,3.79
2018-01-08T09:19:31.689Z,3.73
2018-01-08T09:20:32.108Z,3.7
2018-01-08T09:21:31.995Z,3.74
2018-01-08T09:22:31.312Z,3.69
2018-01-08T09:23:31.402Z,3.69
2018-01-08T09:24:31.650Z,3.77
2018-01-08T09:25:31.713Z,3.67
2018-01-08T09:26:32.006Z,3.72
2018-01-08T09:27:31.584Z,3.76
2018-01-08T09:28:31.862Z,3.75
2018-01-08T09:29:31.442Z,3.75
2018-01-08T09:30:31.733Z,3.78
2018-01-08T09:31:32.061Z,3.71
2018-01-08T09:32:31.463Z,3.71
2018-01-08T09:33:31.905Z,3.76
2018-01-08T09:34:30.997Z,3.72
2018-01-08T09:35:31.259Z,3.74
2018-01-08T09:36:31.532Z,3.78
2018-01-08T09:37:30.854Z,3.74
2018-01-08T09:38:31.234Z,3.76
2018-01-08T09:39:31.543Z,3.73
2018-01-08T09:40:30.859Z,3.77
2018-01-08T09:41:31.248Z,3.76
2018-01-08T09:42:31.815Z,3.77
2018-01-08T09:43:31.286Z,3.72
2018-01-08T09:44:31.800Z,3.77
2018-01-08T09:45:31.221Z,3.81
2018-01-08T09:46:31.550Z,3.72
2018-01-08T09:47:30.884Z,3.76
2018-01-08T09:48:31.126Z,3.74
2018-01-08T09:49:31.678Z,3.78
2018-01-08T09:50:30.758Z,3.79
2018-01-08T09:51:31.135Z,3.79
2018-01-08T09:52:31.564Z,3.76
2018-01-08T09:53:30.982Z,3.76
2018-01-08T09:54:31.212Z,3.78
2018-01-08T09:55:31.636Z,3.75
2018-01-08T09:56:30.942Z,3.72
2018-01-08T09:57:31.218Z,3.74
2018-01-08T09:58:31.559Z,3.77
2018-01-08T09:59:31.142Z,3.72
2018-01-08T10:00:31.480Z,3.73
2018-01-08T10:01:32.168Z,3.72
2018-01-08T10:02:31.497Z,3.73
2018-01-08T10:03:30.951Z,3.73
2018-01-08T10:04:31.460Z,3.72
2018-01-08T10:05:30.872Z,3.74
2018-01-08T10:06:31.761Z,3.71
2018-01-08T10:07:30.698Z,3.74
2018-01-08T10:08:30.887Z,3.78
2018-01-08T10:09:31.113Z,3.77
2018-01-08T10:10:30.592Z,3.71
2018-01-08T10:11:30.988Z,3.72
2018-01-08T10:12:31.434Z,3.77
2018-01-08T10:13:30.845Z,3.77
2018-01-08T10:14:31.317Z,3.74
2018-01-08T10:15:30.722Z,3.71
2018-01-08T10:16:31.065Z,3.73
2018-01-08T10:17:31.707Z,3.75
2018-01-08T10:18:31.113Z,3.78
2018-01-08T10:19:30.518Z,3.77
2018-01-08T10:20:30.833Z,3.75
2018-01-08T10:21:30.417Z,3.77
2018-01-08T10:22:30.672Z,3.82
2018-01-08T10:23:31.024Z,3.78
2018-01-08T10:24:31.458Z,3.8
2018-01-08T10:25:30.762Z,3.8
2018-01-08T10:26:31.066Z,3.73
2018-01-08T10:27:30.489Z,3.71
2018-01-08T10:28:30.586Z,3.73
2018-01-08T10:29:56.312Z,3.73
2018-01-08T10:30:30.654Z,3.73
2018-01-08T10:31:30.993Z,3.72
2018-01-08T10:32:30.513Z,3.72
2018-01-08T10:33:30.775Z,3.77
2018-01-08T10:34:30.971Z,3.77
2018-01-08T10:35:31.263Z,3.77
2018-01-08T10:36:31.630Z,3.74
2018-01-08T10:37:32.021Z,3.7
2018-01-08T10:38:31.271Z,3.65
2018-01-08T10:39:31.508Z,3.77
2018-01-08T10:40:31.947Z,3.73
2018-01-08T10:41:31.471Z,3.79
2018-01-08T10:42:31.946Z,3.72
2018-01-08T10:43:31.690Z,3.73
2018-01-08T10:44:31.969Z,3.79
2018-01-08T10:45:31.254Z,3.78
2018-01-08T10:46:31.532Z,3.77
2018-01-08T10:47:31.744Z,3.69
2018-01-08T10:48:32.271Z,3.77
2018-01-08T10:49:31.485Z,3.8
2018-01-08T10:50:31.910Z,3.75
2018-01-08T10:51:31.301Z,3.78
2018-01-08T10:52:31.646Z,3.78
2018-01-08T10:53:32.339Z,3.76
2018-01-08T10:54:31.978Z,3.82
2018-01-08T10:55:31.508Z,3.87
2018-01-08T10:56:31.972Z,3.85
2018-01-08T10:57:31.580Z,3.71
2018-01-08T10:58:31.985Z,3.76
2018-01-08T10:59:31.463Z,3.77
2018-01-08T11:00:31.958Z,3.81
2018-01-08T11:01:31.349Z,3.84
2018-01-08T11:02:31.682Z,3.81
2018-01-08T11:03:32.213Z,3.82
2018-01-08T11:04:31.553Z,3.81
2018-01-08T11:05:32.436Z,3.81
2018-01-08T11:06:31.909Z,3.81
2018-01-08T11:07:32.357Z,3.78
2018-01-08T11:08:32.204Z,3.75
2018-01-08T11:09:31.735Z,3.8
2018-01-08T11:10:32.158Z,3.8
2018-01-08T11:11:31.563Z,3.79
2018-01-08T11:12:31.906Z,3.75
2018-01-08T11:13:31.729Z,3.81
2018-01-08T11:14:32.107Z,3.76
2018-01-08T11:15:31.553Z,3.79
2018-01-08T11:16:32.044Z,3.76
2018-01-08T11:17:31.375Z,3.74
2018-01-08T11:18:32.007Z,3.81
2018-01-08T11:19:31.329Z,3.8
2018-01-08T11:20:31.599Z,3.85
2018-01-08T11:21:32.029Z,3.8
2018-01-08T11:22:31.923Z,3.8
2018-01-08T11:23:31.714Z,3.86
2018-01-08T11:24:32.407Z,3.8
2018-01-08T11:25:31.839Z,3.87
2018-01-08T11:26:31.574Z,3.77
2018-01-08T11:27:32.000Z,3.78
2018-01-08T11:28:31.434Z,3.88
2018-01-08T11:29:31.934Z,3.87
2018-01-08T11:30:32.276Z,3.87
2018-01-08T11:31:31.566Z,3.87
2018-01-08T11:32:31.908Z,3.83
2018-01-08T11:33:32.367Z,3.84
2018-01-08T11:34:32.007Z,3.85
2018-01-08T11:35:31.383Z,3.82
2018-01-08T11:36:31.928Z,3.82
2018-01-08T11:37:31.831Z,3.79
2018-01-08T11:38:31.133Z,3.88
2018-01-08T11:39:32.536Z,3.87
2018-01-08T11:40:30.776Z,3.85
2018-01-08T11:41:31.015Z,3.84
2018-01-08T11:42:31.215Z,3.84
2018-01-08T11:43:31.472Z,3.9
2018-01-08T11:44:30.785Z,3.79
2018-01-08T11:45:31.066Z,3.76
2018-01-08T11:46:31.317Z,3.78
2018-01-08T11:47:31.646Z,3.81
2018-01-08T11:48:31.190Z,3.76
2018-01-08T11:49:31.565Z,3.76
2018-01-08T11:50:30.836Z,3.77
2018-01-08T11:51:31.049Z,3.79
2018-01-08T11:52:31.235Z,3.81
2018-01-08T11:53:31.465Z,3.84
2018-01-08T11:54:31.799Z,3.78
2018-01-08T11:55:31.067Z,3.75
2018-01-08T11:56:31.265Z,3.72
2018-01-08T11:57:31.544Z,3.77
2018-01-08T11:58:30.773Z,3.83
2018-01-08T11:59:31.254Z,3.83
2018-01-08T12:00:31.657Z,3.76
2018-01-08T12:01:31.010Z,3.72
2018-01-08T12:02:31.267Z,3.7
2018-01-08T12:03:31.482Z,3.69
2018-01-08T12:04:31.671Z,3.75
2018-01-08T12:05:30.883Z,3.77
2018-01-08T12:06:31.086Z,3.72
2018-01-08T12:07:31.606Z,3.73
2018-01-08T12:08:30.828Z,3.65
2018-01-08T12:09:31.145Z,3.68
2018-01-08T12:10:30.953Z,3.68
2018-01-08T12:11:31.371Z,3.64
2018-01-08T12:12:30.799Z,3.68
2018-01-08T12:13:31.041Z,3.67
2018-01-08T12:14:31.460Z,3.67
2018-01-08T12:15:30.904Z,3.7
2018-01-08T12:16:31.290Z,3.72
2018-01-08T12:17:30.690Z,3.72
2018-01-08T12:18:31.090Z,3.71
2018-01-08T12:19:31.432Z,3.79
2018-01-08T12:20:31.615Z,3.67
2018-01-08T12:21:31.197Z,3.68
2018-01-08T12:22:30.620Z,3.69
2018-01-08T12:23:31.009Z,3.74
2018-01-08T12:24:31.429Z,3.78
2018-01-08T12:25:30.757Z,3.75
2018-01-08T12:26:31.396Z,3.75
2018-01-08T12:27:30.759Z,3.71
2018-01-08T12:28:31.104Z,3.73
2018-01-08T12:29:31.363Z,3.71
2018-01-08T12:30:30.982Z,3.75
2018-01-08T12:31:31.522Z,3.73
2018-01-08T12:32:30.713Z,3.75
2018-01-08T12:33:30.944Z,3.8
2018-01-08T12:34:31.198Z,3.77
2018-01-08T12:35:30.635Z,3.73
2018-01-08T12:36:31.107Z,3.67
2018-01-08T12:37:31.504Z,3.65
2018-01-08T12:38:31.059Z,3.61
2018-01-08T12:39:31.307Z,3.64
2018-01-08T12:40:31.488Z,3.62
2018-01-08T12:41:31.618Z,3.66
2018-01-08T12:42:31.972Z,3.72
2018-01-08T12:43:31.260Z,3.65
2018-01-08T12:44:31.614Z,3.71
2018-01-08T12:45:31.977Z,3.71
2018-01-08T12:46:31.150Z,3.74
2018-01-08T12:47:31.385Z,3.57
2018-01-08T12:48:31.787Z,3.63
2018-01-08T12:49:31.101Z,3.6
2018-01-08T12:50:31.347Z,3.69
2018-01-08T12:51:31.567Z,3.63
2018-01-08T12:52:31.795Z,3.63
2018-01-08T12:53:31.205Z,3.62
2018-01-08T12:54:31.490Z,3.61
2018-01-08T12:55:31.704Z,3.69
2018-01-08T12:56:31.913Z,3.63
2018-01-08T12:57:31.410Z,3.62
2018-01-08T12:58:32.119Z,3.66
2018-01-08T12:59:31.601Z,3.64
2018-01-08T13:00:31.973Z,3.6
2018-01-08T13:01:31.538Z,3.65
2018-01-08T13:02:31.763Z,3.68
2018-01-08T13:03:31.227Z,3.69
2018-01-08T13:04:31.671Z,3.65
2018-01-08T13:05:31.950Z,3.64
2018-01-08T13:06:31.293Z,3.65
2018-01-08T13:07:31.836Z,3.6
2018-01-08T13:08:31.207Z,3.64
2018-01-08T13:09:31.876Z,3.68
2018-01-08T13:10:31.322Z,3.63
2018-01-08T13:11:31.710Z,3.66
2018-01-08T13:12:32.138Z,3.63
2018-01-08T13:13:31.618Z,3.64
2018-01-08T13:14:32.107Z,3.62
2018-01-08T13:15:31.667Z,3.66
2018-01-08T13:16:32.002Z,3.59
2018-01-08T13:17:31.353Z,3.64
2018-01-08T13:18:31.846Z,3.59
2018-01-08T13:19:31.213Z,3.61
2018-01-08T13:20:31.479Z,3.69
2018-01-08T13:21:31.752Z,3.66
2018-01-08T13:22:31.184Z,3.69
2018-01-08T13:23:31.348Z,3.71
2018-01-08T13:24:31.578Z,3.68
2018-01-08T13:25:31.878Z,3.67
2018-01-08T13:26:31.431Z,3.71
2018-01-08T13:27:31.894Z,3.72
2018-01-08T13:28:31.208Z,3.7
2018-01-08T13:29:31.333Z,3.7